Temple Hills, MD (20748)

9:48 AM EDT on July 03, 2015 (GMT -0400)
Summit Creek | | Change Station
CLOSE
Current Station
Personal Weather Station
Location: Clinton, MD
Elevation: 233 ft
Nearby Weather Stations

Elev 233 ft 38.76 °N, 76.88 °W | Updated 2 minutes ago

Partly Cloudy
Partly Cloudy
74.5 °F
Feels Like 75 °F
N
1.7
Wind Variable Wind from SW

Today
High -- | Low -- °F
--% Chance of Precip.
Yesterday
High -- | Low -- °F
Precip. -- in
5:47 AM 8:36 PM
Full, 97% visible
Pressure 29.99 in
Visibility 10.0 miles
Clouds Few 16000 ft
Heat Index 75 °F
Dew Point 68 °F
Humidity 80%
Rainfall 0.00 in
Snow Depth Not available.
UV 6 out of 12
Pollen .60 out of 12
Air Quality Not available.
Flu Activity Not available.
SPECI KADW 031343Z AUTO 12004KT 10SM -DZ FEW160 22/21 A2999 RMK AO2 DZB18E28RAB37E41DZB43 $

More Conditions Fewer Conditions

Pressure 29.99 in
Visibility 10.0 miles
Clouds Few 16000 ft
Heat Index 75 °F
Dew Point 68 °F
Humidity 80%
Rainfall 0.00 in
Snow Depth Not available.
UV 6 out of 12
Pollen .60 out of 12
Air Quality Not available.
Flu Activity Not available.
SPECI KADW 031343Z AUTO 12004KT 10SM -DZ FEW160 22/21 A2999 RMK AO2 DZB18E28RAB37E41DZB43 $

More Conditions Fewer Conditions

10-Day Weather Forecast

×

Almanac

Astronomy

Jul. 03, 2015 Rise Set
Actual Time
Civil Twilight
Nautical Twilight
Astronomical Twilight
Moon
Length of Visible Light
Length of Day
Tomorrow will be .
, % of the Moon is Illuminated

Today's Extremes

State Highs State Lows

Community

WunderPhotos

Upload Photos

1,834,670 photos uploaded!

WunderBlogs® & News

Nearby

Air Quality

  Air Quality AQ Index Pollutant
Not available.

Snow Depth

Station Depth Elevation

Earthquake Activity

City Distance Mag. Time & Date
Minimum magnitude displayed is 2.5.

Coastal Water Temperatures

Place Temperature

Stations

Nearby Weather Stations

Station Location Temp. Windchill Dew Point Humidity Wind Precip. Elev Updated Type